Time;durP1;ratioP1;P1;durP2;ratioP2;P2;SDS_P1;SDS_P2;PMS_P1;PMS_P2;Temp;Humidity;BMP_temperature;BMP_pressure;BME280_temperature;BME280_humidity;BME280_pressure;Samples;Min_cycle;Max_cycle;Signal;HPM_P1;HPM_P2
2022/12/08 00:01:06;;;;;;;;;;;2.70;99.90;;;;;;5031533;28;19925;-67
2022/12/08 00:03:32;;;;;;;;;;;2.60;99.90;;;;;;5032283;28;19925;-68
2022/12/08 00:11:26;;;;;;;;;;;2.50;99.90;;;;;;5048195;28;19979;-68
2022/12/08 00:13:52;;;;;;;;;;;2.50;99.90;;;;;;5031907;28;19969;-68
2022/12/08 00:16:17;;;;;;;;;;;2.50;99.90;;;;;;5047939;28;19925;-68
2022/12/08 00:18:43;;;;;;;;;;;2.50;99.90;;;;;;5031795;28;19925;-69
2022/12/08 00:21:08;;;;;;;;;;;2.50;99.90;;;;;;5032105;28;19932;-68
2022/12/08 00:23:34;;;;;;;;;;;2.50;99.90;;;;;;5032479;28;19926;-68
2022/12/08 00:26:03;;;;;;;;;;;2.50;99.90;;;;;;5031857;28;19929;-67
2022/12/08 00:28:30;;;;;;;;;;;2.50;99.90;;;;;;5047756;28;19926;-68
2022/12/08 00:30:55;;;;;;;;;;;2.50;99.90;;;;;;5031617;28;19925;-68
2022/12/08 00:33:21;;;;;;;;;;;2.50;99.90;;;;;;5032053;28;20279;-68
2022/12/08 00:35:46;;;;;;;;;;;2.60;99.90;;;;;;5031524;28;19925;-68
2022/12/08 00:38:12;;;;;;;;;;;2.60;99.90;;;;;;5031964;28;20373;-68
2022/12/08 00:40:42;;;;;;;;;;;2.60;99.90;;;;;;5031389;28;20290;-69
2022/12/08 00:43:07;;;;;;;;;;;2.60;99.90;;;;;;5031551;28;20283;-69
2022/12/08 00:45:33;;;;;;;;;;;2.60;99.90;;;;;;5031656;28;19932;-68
2022/12/08 00:47:58;;;;;;;;;;;2.60;99.90;;;;;;5046865;28;20468;-68
2022/12/08 00:50:24;;;;;;;;;;;2.60;99.90;;;;;;5047113;28;20378;-69
2022/12/08 00:52:50;;;;;;;;;;;2.70;99.90;;;;;;5030818;28;20304;-69
2022/12/08 00:55:15;;;;;;;;;;;2.70;99.90;;;;;;5046954;28;19926;-68
2022/12/08 00:57:41;;;;;;;;;;;2.70;99.90;;;;;;5013486;28;19929;-69
2022/12/08 01:00:06;;;;;;;;;;;2.70;99.90;;;;;;5046626;28;20020;-68
2022/12/08 01:02:33;;;;;;;;;;;2.70;99.90;;;;;;5030891;28;19925;-68
2022/12/08 01:04:58;;;;;;;;;;;2.80;99.90;;;;;;5013665;28;19933;-68
2022/12/08 01:07:24;;;;;;;;;;;2.60;99.90;;;;;;5031412;28;20286;-68
2022/12/08 01:09:50;;;;;;;;;;;2.60;99.90;;;;;;5062843;28;19933;-68
2022/12/08 01:12:15;;;;;;;;;;;2.60;99.90;;;;;;5046371;28;20084;-69
2022/12/08 01:14:41;;;;;;;;;;;2.60;99.90;;;;;;5013692;28;19925;-68
2022/12/08 01:17:06;;;;;;;;;;;2.50;99.90;;;;;;5030795;28;19980;-69
2022/12/08 01:19:32;;;;;;;;;;;2.60;99.90;;;;;;5031086;28;19925;-68
2022/12/08 01:21:57;;;;;;;;;;;2.50;99.90;;;;;;5030699;28;19947;-68
2022/12/08 01:24:23;;;;;;;;;;;2.60;99.90;;;;;;5030940;28;19995;-69
2022/12/08 01:26:49;;;;;;;;;;;2.50;99.90;;;;;;5030250;28;19925;-68
2022/12/08 01:29:14;;;;;;;;;;;2.60;99.90;;;;;;5030940;28;20036;-68
2022/12/08 01:31:40;;;;;;;;;;;2.60;99.90;;;;;;5031080;28;19925;-69
2022/12/08 01:34:07;;;;;;;;;;;2.60;99.90;;;;;;5046164;28;19921;-68
2022/12/08 01:36:35;;;;;;;;;;;2.60;99.90;;;;;;5030916;28;20011;-68
2022/12/08 01:39:02;;;;;;;;;;;2.70;99.90;;;;;;5030039;28;19925;-68
2022/12/08 01:41:32;;;;;;;;;;;2.70;99.90;;;;;;5046462;28;20267;-68
2022/12/08 01:44:07;;;;;;;;;;;2.60;99.90;;;;;;5045926;28;19968;-69
2022/12/08 01:46:34;;;;;;;;;;;2.60;99.90;;;;;;5030450;28;20393;-69
2022/12/08 01:49:05;;;;;;;;;;;2.70;99.90;;;;;;5045568;28;20504;-69
2022/12/08 01:51:34;;;;;;;;;;;2.60;99.90;;;;;;5013381;28;20289;-69
2022/12/08 01:54:01;;;;;;;;;;;2.70;99.90;;;;;;5045486;28;19929;-68
2022/12/08 01:56:31;;;;;;;;;;;2.70;99.90;;;;;;5030616;28;19925;-69
2022/12/08 01:58:58;;;;;;;;;;;2.70;99.90;;;;;;5045453;28;19973;-68
2022/12/08 02:01:23;;;;;;;;;;;2.70;99.90;;;;;;5045873;28;19925;-68
2022/12/08 02:03:55;;;;;;;;;;;2.70;99.90;;;;;;5028964;28;20401;-68
2022/12/08 02:06:21;;;;;;;;;;;2.70;99.90;;;;;;5030273;28;20293;-68
2022/12/08 02:08:48;;;;;;;;;;;2.70;99.90;;;;;;5030271;28;19925;-68
2022/12/08 02:11:14;;;;;;;;;;;2.90;99.90;;;;;;5029930;28;19925;-68
2022/12/08 02:13:41;;;;;;;;;;;2.70;99.90;;;;;;5029815;28;20390;-68
2022/12/08 02:16:33;;;;;;;;;;;2.70;99.90;;;;;;5045323;28;19925;-68
2022/12/08 02:19:11;;;;;;;;;;;2.70;99.90;;;;;;4999961;28;19925;-68
2022/12/08 02:21:36;;;;;;;;;;;2.70;99.90;;;;;;5045290;28;20076;-68
2022/12/08 02:24:25;;;;;;;;;;;3.20;99.90;;;;;;5045091;28;19945;-68
2022/12/08 02:26:54;;;;;;;;;;;2.70;99.90;;;;;;5029889;28;19925;-68
2022/12/08 02:29:38;;;;;;;;;;;3.00;99.90;;;;;;5030010;28;20291;-68
2022/12/08 02:32:12;;;;;;;;;;;2.60;99.90;;;;;;5045128;28;19932;-67
2022/12/08 02:34:49;;;;;;;;;;;2.60;99.90;;;;;;5011824;28;19925;-68
2022/12/08 02:37:30;;;;;;;;;;;2.60;99.90;;;;;;5029531;28;20191;-67
2022/12/08 02:40:01;;;;;;;;;;;2.60;99.90;;;;;;5029272;28;20129;-68
2022/12/08 02:42:34;;;;;;;;;;;2.50;99.90;;;;;;5029684;28;19926;-68
2022/12/08 02:45:03;;;;;;;;;;;2.50;99.90;;;;;;5011869;28;20297;-68
2022/12/08 02:47:29;;;;;;;;;;;2.50;99.90;;;;;;5045218;28;19925;-69
2022/12/08 02:49:54;;;;;;;;;;;2.50;99.90;;;;;;5029810;28;19933;-68
2022/12/08 02:52:20;;;;;;;;;;;2.50;99.90;;;;;;5044748;28;19925;-69
2022/12/08 02:54:50;;;;;;;;;;;2.50;99.90;;;;;;5029679;28;20363;-69
2022/12/08 02:57:22;;;;;;;;;;;2.40;99.90;;;;;;5029502;28;19929;-68
2022/12/08 03:00:06;;;;;;;;;;;2.40;99.90;;;;;;5044578;28;20415;-68
2022/12/08 03:02:35;;;;;;;;;;;2.40;99.90;;;;;;5029216;28;20393;-68
2022/12/08 03:05:03;;;;;;;;;;;2.40;99.90;;;;;;5044556;28;20028;-68
2022/12/08 03:07:41;;;;;;;;;;;2.40;99.90;;;;;;5044500;28;19931;-68
2022/12/08 03:10:07;;;;;;;;;;;2.30;99.90;;;;;;5028507;28;20390;-69
2022/12/08 03:12:45;;;;;;;;;;;2.30;99.90;;;;;;5029016;28;19932;-68
2022/12/08 03:15:14;;;;;;;;;;;2.30;99.90;;;;;;5011154;28;19929;-68
2022/12/08 03:17:41;;;;;;;;;;;2.30;99.90;;;;;;5011306;28;20323;-68
2022/12/08 03:20:09;;;;;;;;;;;2.40;99.90;;;;;;5028857;28;19931;-68
2022/12/08 03:22:35;;;;;;;;;;;2.40;99.90;;;;;;5029186;28;19925;-68
2022/12/08 03:25:00;;;;;;;;;;;2.40;99.90;;;;;;5028990;28;19932;-68
2022/12/08 03:27:27;;;;;;;;;;;2.80;99.90;;;;;;5028926;28;19987;-68
2022/12/08 03:29:55;;;;;;;;;;;2.40;99.90;;;;;;5044558;28;19933;-69
2022/12/08 03:32:25;;;;;;;;;;;2.40;99.90;;;;;;5011206;28;20013;-70
2022/12/08 03:34:51;;;;;;;;;;;2.40;99.90;;;;;;5029032;28;19932;-70
2022/12/08 03:37:16;;;;;;;;;;;2.40;99.90;;;;;;5027538;28;20523;-68
2022/12/08 03:39:42;;;;;;;;;;;2.40;99.90;;;;;;5028861;28;19932;-69
2022/12/08 03:42:07;;;;;;;;;;;2.40;99.90;;;;;;5028556;28;19936;-67
2022/12/08 03:44:33;;;;;;;;;;;2.40;99.90;;;;;;5010977;28;20313;-68
2022/12/08 03:46:58;;;;;;;;;;;2.30;99.90;;;;;;5044485;28;19933;-68
2022/12/08 03:49:24;;;;;;;;;;;2.50;99.90;;;;;;5027493;28;19928;-68
2022/12/08 03:51:50;;;;;;;;;;;2.30;99.90;;;;;;5028399;28;19964;-68
2022/12/08 03:54:15;;;;;;;;;;;2.70;99.90;;;;;;5028577;28;19929;-68
2022/12/08 03:56:41;;;;;;;;;;;2.30;99.90;;;;;;5011474;28;19925;-68
2022/12/08 03:59:07;;;;;;;;;;;2.30;99.90;;;;;;5028024;28;19931;-68
2022/12/08 04:01:33;;;;;;;;;;;2.20;99.90;;;;;;5044245;28;19964;-68
2022/12/08 04:03:58;;;;;;;;;;;2.40;99.90;;;;;;5028777;28;20050;-68
2022/12/08 04:06:24;;;;;;;;;;;2.40;99.90;;;;;;5028091;28;19925;-68
2022/12/08 04:08:49;;;;;;;;;;;2.40;99.90;;;;;;5043697;28;19933;-67
2022/12/08 04:11:15;;;;;;;;;;;2.40;99.90;;;;;;5043150;28;19926;-67
2022/12/08 04:13:41;;;;;;;;;;;2.40;99.90;;;;;;5028275;28;19932;-69
2022/12/08 04:16:07;;;;;;;;;;;2.40;99.90;;;;;;5028357;28;20323;-68
2022/12/08 04:18:33;;;;;;;;;;;2.40;99.90;;;;;;5043928;28;19933;-68
2022/12/08 04:20:58;;;;;;;;;;;2.40;99.90;;;;;;5028266;28;20366;-68
2022/12/08 04:23:24;;;;;;;;;;;2.40;99.90;;;;;;5027986;28;19933;-69
2022/12/08 04:25:50;;;;;;;;;;;2.40;99.90;;;;;;5028504;28;20027;-68
2022/12/08 04:28:16;;;;;;;;;;;2.40;99.90;;;;;;5030857;28;19925;-66
2022/12/08 04:30:42;;;;;;;;;;;2.40;99.90;;;;;;5031867;28;19932;-67
2022/12/08 04:33:07;;;;;;;;;;;2.40;99.90;;;;;;5047100;28;19925;-67
2022/12/08 04:35:33;;;;;;;;;;;2.40;99.90;;;;;;5046947;28;20395;-67
2022/12/08 04:37:58;;;;;;;;;;;2.40;99.90;;;;;;4997845;28;20028;-67
2022/12/08 04:40:24;;;;;;;;;;;2.40;99.90;;;;;;5031198;28;19925;-67
2022/12/08 04:42:50;;;;;;;;;;;2.40;99.90;;;;;;5031592;28;20032;-68
2022/12/08 04:45:15;;;;;;;;;;;2.40;99.90;;;;;;5046874;28;20350;-67
2022/12/08 04:47:41;;;;;;;;;;;3.20;99.90;;;;;;5031883;28;19925;-68
2022/12/08 04:50:07;;;;;;;;;;;2.40;99.90;;;;;;5046720;28;19932;-68
2022/12/08 04:52:33;;;;;;;;;;;2.40;99.90;;;;;;5031134;28;20064;-67
2022/12/08 04:54:58;;;;;;;;;;;2.40;99.90;;;;;;5047050;28;20405;-68
2022/12/08 04:57:24;;;;;;;;;;;2.40;99.90;;;;;;5046687;28;20012;-68
2022/12/08 04:59:49;;;;;;;;;;;2.40;99.90;;;;;;5031442;28;20335;-69
2022/12/08 05:02:15;;;;;;;;;;;2.40;99.90;;;;;;5030634;28;19929;-68
2022/12/08 05:04:40;;;;;;;;;;;2.40;99.90;;;;;;5031130;28;19925;-68
2022/12/08 05:07:06;;;;;;;;;;;2.40;99.90;;;;;;5047017;28;20425;-68
2022/12/08 05:09:32;;;;;;;;;;;2.40;99.90;;;;;;5012972;28;19925;-67
2022/12/08 05:11:57;;;;;;;;;;;2.40;99.90;;;;;;5030820;28;20294;-68
2022/12/08 05:14:23;;;;;;;;;;;2.40;99.90;;;;;;5030579;28;19925;-68
2022/12/08 05:16:48;;;;;;;;;;;2.50;99.90;;;;;;5046492;28;19926;-68
2022/12/08 05:19:14;;;;;;;;;;;2.40;99.90;;;;;;5046379;28;20399;-68
2022/12/08 05:21:40;;;;;;;;;;;2.50;99.90;;;;;;5030677;28;20286;-68
2022/12/08 05:24:06;;;;;;;;;;;2.50;99.90;;;;;;5030786;28;20289;-69
2022/12/08 05:26:32;;;;;;;;;;;2.40;99.90;;;;;;5013111;28;19943;-68
2022/12/08 05:28:57;;;;;;;;;;;2.40;99.90;;;;;;5046710;28;19925;-69
2022/12/08 05:31:23;;;;;;;;;;;2.40;99.90;;;;;;5046155;28;19925;-68
2022/12/08 05:33:49;;;;;;;;;;;2.40;99.90;;;;;;5031256;28;19970;-69
2022/12/08 05:36:15;;;;;;;;;;;2.40;99.90;;;;;;5013483;28;19925;-68
2022/12/08 05:38:41;;;;;;;;;;;2.50;99.90;;;;;;5028007;28;19925;-69
2022/12/08 05:41:08;;;;;;;;;;;2.40;99.90;;;;;;5030768;28;20374;-68
2022/12/08 05:43:34;;;;;;;;;;;2.40;99.90;;;;;;5046195;28;19925;-68
2022/12/08 05:46:00;;;;;;;;;;;2.40;99.90;;;;;;5013149;28;20289;-68
2022/12/08 05:48:25;;;;;;;;;;;2.40;99.90;;;;;;5012978;28;19951;-67
2022/12/08 05:50:51;;;;;;;;;;;2.30;99.90;;;;;;5030507;28;19925;-68
2022/12/08 05:53:17;;;;;;;;;;;2.30;99.90;;;;;;5030805;28;20025;-68
2022/12/08 05:55:43;;;;;;;;;;;2.50;99.90;;;;;;5045667;28;19928;-68
2022/12/08 05:58:11;;;;;;;;;;;2.30;99.90;;;;;;5030452;28;19925;-68
2022/12/08 06:00:37;;;;;;;;;;;2.30;99.90;;;;;;5045455;28;20386;-68
2022/12/08 06:03:04;;;;;;;;;;;2.20;99.90;;;;;;5029231;28;21549;-69
2022/12/08 06:05:33;;;;;;;;;;;2.20;99.90;;;;;;5030090;28;19980;-69
2022/12/08 06:07:59;;;;;;;;;;;2.30;99.90;;;;;;5030408;28;20035;-69
2022/12/08 06:10:25;;;;;;;;;;;2.30;99.90;;;;;;5045117;28;19929;-67
2022/12/08 06:12:50;;;;;;;;;;;2.30;99.90;;;;;;5030347;28;19970;-68
2022/12/08 06:15:16;;;;;;;;;;;2.30;99.90;;;;;;5030573;28;19971;-68
2022/12/08 06:17:41;;;;;;;;;;;2.30;99.90;;;;;;5029939;28;19929;-68
2022/12/08 06:20:07;;;;;;;;;;;2.30;99.90;;;;;;5029955;28;19971;-68
2022/12/08 06:22:33;;;;;;;;;;;2.20;99.90;;;;;;5029940;28;20141;-68
2022/12/08 06:24:59;;;;;;;;;;;2.20;99.90;;;;;;5030556;28;20282;-70
2022/12/08 06:27:25;;;;;;;;;;;2.20;99.90;;;;;;5012594;28;19985;-68
2022/12/08 06:29:50;;;;;;;;;;;2.10;99.90;;;;;;5028807;28;19932;-68
2022/12/08 06:32:16;;;;;;;;;;;2.20;99.90;;;;;;5045474;28;20458;-69
2022/12/08 06:34:42;;;;;;;;;;;2.10;99.90;;;;;;5029795;28;20129;-68
2022/12/08 06:37:07;;;;;;;;;;;2.70;99.90;;;;;;5062413;28;19929;-69
2022/12/08 06:39:33;;;;;;;;;;;2.10;99.90;;;;;;5029505;28;19925;-69
2022/12/08 06:44:43;;;;;;;;;;;2.00;99.90;;;;;;5029711;28;20016;-69
2022/12/08 06:47:08;;;;;;;;;;;2.00;99.90;;;;;;5030036;28;19988;-68
2022/12/08 06:49:34;;;;;;;;;;;1.90;99.90;;;;;;5027893;28;19926;-69
2022/12/08 06:52:00;;;;;;;;;;;2.00;99.90;;;;;;5012520;28;19929;-68
2022/12/08 06:54:25;;;;;;;;;;;1.90;99.90;;;;;;5030088;28;19925;-67
2022/12/08 06:56:51;;;;;;;;;;;1.90;99.90;;;;;;5029622;28;19973;-68
2022/12/08 06:59:18;;;;;;;;;;;1.90;99.90;;;;;;5029433;28;19925;-68
2022/12/08 07:01:44;;;;;;;;;;;1.90;99.90;;;;;;5045069;28;19929;-68
2022/12/08 07:04:09;;;;;;;;;;;1.90;99.90;;;;;;5045347;28;20024;-69
2022/12/08 07:06:35;;;;;;;;;;;1.80;99.90;;;;;;5028389;28;19932;-67
2022/12/08 07:09:01;;;;;;;;;;;2.40;99.90;;;;;;5029235;28;19934;-68
2022/12/08 07:11:26;;;;;;;;;;;1.80;99.90;;;;;;5044504;28;20336;-69
2022/12/08 07:13:54;;;;;;;;;;;1.80;99.90;;;;;;5044457;28;19921;-69
2022/12/08 07:16:19;;;;;;;;;;;1.70;99.90;;;;;;5029175;28;19935;-68
2022/12/08 07:18:45;;;;;;;;;;;1.70;99.90;;;;;;5011600;28;19925;-69
2022/12/08 07:21:12;;;;;;;;;;;1.70;99.90;;;;;;5044415;28;20370;-68
2022/12/08 07:23:38;;;;;;;;;;;1.70;99.90;;;;;;5028947;28;19950;-67
2022/12/08 07:26:05;;;;;;;;;;;1.70;99.90;;;;;;5029305;28;19925;-69
2022/12/08 07:28:35;;;;;;;;;;;1.70;99.90;;;;;;5029146;28;19925;-68
2022/12/08 07:31:01;;;;;;;;;;;1.60;99.90;;;;;;5028901;28;19955;-67
2022/12/08 07:33:27;;;;;;;;;;;1.60;99.90;;;;;;5029033;28;20386;-68
2022/12/08 07:35:53;;;;;;;;;;;1.60;99.90;;;;;;5028792;28;19926;-68
2022/12/08 07:38:19;;;;;;;;;;;1.60;99.90;;;;;;5029272;28;19932;-68
2022/12/08 07:40:44;;;;;;;;;;;1.50;99.90;;;;;;5043774;28;19925;-68
2022/12/08 07:43:10;;;;;;;;;;;1.60;99.90;;;;;;5029038;28;19925;-68
2022/12/08 07:45:35;;;;;;;;;;;1.90;99.90;;;;;;5029134;28;19925;-67
2022/12/08 07:48:01;;;;;;;;;;;2.00;99.90;;;;;;5028460;28;19948;-67
2022/12/08 07:50:27;;;;;;;;;;;1.50;99.90;;;;;;5044133;28;19978;-68
2022/12/08 07:52:52;;;;;;;;;;;1.50;99.90;;;;;;5028259;28;20351;-66
2022/12/08 07:55:18;;;;;;;;;;;1.50;99.90;;;;;;5028775;28;19925;-67
2022/12/08 07:57:43;;;;;;;;;;;1.60;99.90;;;;;;5044142;28;19929;-67
2022/12/08 08:00:09;;;;;;;;;;;1.40;99.90;;;;;;5028022;28;20378;-68
2022/12/08 08:02:35;;;;;;;;;;;1.50;99.90;;;;;;5012969;28;20363;-68
2022/12/08 08:05:01;;;;;;;;;;;1.40;99.90;;;;;;5030698;28;19921;-68
2022/12/08 08:07:29;;;;;;;;;;;1.40;99.90;;;;;;5031609;28;19974;-68
2022/12/08 08:09:54;;;;;;;;;;;1.80;99.90;;;;;;5032036;28;20302;-67
2022/12/08 08:12:20;;;;;;;;;;;1.40;99.90;;;;;;5047621;28;19932;-68
2022/12/08 08:14:45;;;;;;;;;;;1.40;99.90;;;;;;5032015;28;19978;-67
2022/12/08 08:17:11;;;;;;;;;;;1.40;99.90;;;;;;5047769;28;19925;-64
2022/12/08 08:19:37;;;;;;;;;;;1.40;99.90;;;;;;5032157;28;19979;-65
2022/12/08 08:22:02;;;;;;;;;;;1.50;99.90;;;;;;5031650;28;19920;-65
2022/12/08 08:24:28;;;;;;;;;;;1.60;99.90;;;;;;5047483;28;19968;-65
2022/12/08 08:26:54;;;;;;;;;;;1.70;99.90;;;;;;5031702;28;19955;-65
2022/12/08 08:29:20;;;;;;;;;;;1.70;99.90;;;;;;5047173;28;20068;-65
2022/12/08 08:31:45;;;;;;;;;;;1.80;99.90;;;;;;5013927;28;19993;-66
2022/12/08 08:34:11;;;;;;;;;;;1.80;99.90;;;;;;5047122;28;20378;-66
2022/12/08 08:36:37;;;;;;;;;;;1.80;99.90;;;;;;5047389;28;20368;-66
2022/12/08 08:39:03;;;;;;;;;;;1.80;99.90;;;;;;5031822;28;20362;-66
2022/12/08 08:41:28;;;;;;;;;;;1.80;99.90;;;;;;5031530;28;19987;-66
2022/12/08 08:43:54;;;;;;;;;;;1.80;99.90;;;;;;5031758;28;19925;-66
2022/12/08 08:46:19;;;;;;;;;;;1.80;99.90;;;;;;5031870;28;19972;-66
2022/12/08 08:48:45;;;;;;;;;;;1.80;99.90;;;;;;5031710;28;19976;-66
2022/12/08 08:51:12;;;;;;;;;;;1.80;99.90;;;;;;5031631;28;19929;-67
2022/12/08 08:53:38;;;;;;;;;;;1.80;99.90;;;;;;5031333;28;19925;-66
2022/12/08 08:56:11;;;;;;;;;;;1.90;99.90;;;;;;5031289;28;20323;-66
2022/12/08 08:58:36;;;;;;;;;;;1.80;99.90;;;;;;5031808;28;19937;-66
2022/12/08 09:01:02;;;;;;;;;;;1.80;99.90;;;;;;5030811;28;19925;-66
2022/12/08 09:03:28;;;;;;;;;;;1.90;99.90;;;;;;5031745;28;20015;-66
2022/12/08 09:05:53;;;;;;;;;;;1.90;99.90;;;;;;5013460;28;19925;-65
2022/12/08 09:08:19;;;;;;;;;;;1.90;99.90;;;;;;5046622;28;19964;-66
2022/12/08 09:10:45;;;;;;;;;;;1.90;99.90;;;;;;5046389;28;19963;-66
2022/12/08 09:13:10;;;;;;;;;;;2.10;99.90;;;;;;5030715;28;19931;-65
2022/12/08 09:15:36;;;;;;;;;;;2.00;99.90;;;;;;5031136;28;20277;-65
2022/12/08 09:18:02;;;;;;;;;;;2.20;99.90;;;;;;5046187;28;19925;-65
2022/12/08 09:20:27;;;;;;;;;;;2.30;99.90;;;;;;5031084;28;19925;-65
2022/12/08 09:22:53;;;;;;;;;;;2.40;99.90;;;;;;5046163;28;19925;-65
2022/12/08 09:25:18;;;;;;;;;;;2.50;99.90;;;;;;5012883;28;20354;-65
2022/12/08 09:27:44;;;;;;;;;;;2.50;99.90;;;;;;5030382;28;19925;-65
2022/12/08 09:30:09;;;;;;;;;;;2.50;99.90;;;;;;5029996;28;20011;-67
2022/12/08 09:32:35;;;;;;;;;;;2.50;99.90;;;;;;5046184;28;19933;-66
2022/12/08 09:35:01;;;;;;;;;;;2.60;99.90;;;;;;5045751;28;19925;-65
2022/12/08 09:37:26;;;;;;;;;;;2.60;99.90;;;;;;5030528;28;19976;-67
2022/12/08 09:39:52;;;;;;;;;;;2.70;99.90;;;;;;5046076;28;20016;-65
2022/12/08 09:42:25;;;;;;;;;;;2.70;99.90;;;;;;5030577;28;19929;-65
2022/12/08 09:44:58;;;;;;;;;;;2.60;99.90;;;;;;5013287;28;20017;-65
2022/12/08 09:47:27;;;;;;;;;;;2.70;99.90;;;;;;5030628;28;19926;-63
2022/12/08 09:50:13;;;;;;;;;;;2.60;99.90;;;;;;5030565;28;19978;-66
2022/12/08 09:52:55;;;;;;;;;;;2.60;99.90;;;;;;5030091;28;19925;-66
2022/12/08 09:55:31;;;;;;;;;;;2.60;99.90;;;;;;5030588;28;20016;-65
2022/12/08 09:58:00;;;;;;;;;;;2.60;99.90;;;;;;5030133;28;20024;-66
2022/12/08 10:00:25;;;;;;;;;;;2.60;99.90;;;;;;5030349;28;19925;-66
2022/12/08 10:02:51;;;;;;;;;;;2.60;99.90;;;;;;5046054;28;19946;-66
2022/12/08 10:05:16;;;;;;;;;;;2.60;99.90;;;;;;5030030;28;19921;-66
2022/12/08 10:07:45;;;;;;;;;;;2.60;99.90;;;;;;5030319;28;19955;-66
2022/12/08 10:10:10;;;;;;;;;;;2.60;99.90;;;;;;5029893;28;19925;-66
2022/12/08 10:12:41;;;;;;;;;;;2.50;99.90;;;;;;5029999;28;20275;-66
2022/12/08 10:15:07;;;;;;;;;;;3.10;99.90;;;;;;5045321;28;19932;-66
2022/12/08 10:17:34;;;;;;;;;;;2.60;99.90;;;;;;5030033;28;19925;-66
2022/12/08 10:20:02;;;;;;;;;;;2.80;99.90;;;;;;5029659;28;19932;-66
2022/12/08 10:22:33;;;;;;;;;;;2.70;99.90;;;;;;5030373;28;19931;-65
2022/12/08 10:25:04;;;;;;;;;;;2.70;99.90;;;;;;5045029;28;20401;-65
2022/12/08 10:27:33;;;;;;;;;;;2.80;99.90;;;;;;5030161;28;19990;-65
2022/12/08 10:29:59;;;;;;;;;;;2.80;99.90;;;;;;5029935;28;20455;-65
2022/12/08 10:32:28;;;;;;;;;;;2.90;99.90;;;;;;5044918;28;19929;-64
2022/12/08 10:34:59;;;;;;;;;;;3.00;99.90;;;;;;5030071;28;19925;-66
2022/12/08 10:37:25;;;;;;;;;;;3.00;99.90;;;;;;5044869;28;20020;-66
2022/12/08 10:39:57;;;;;;;;;;;3.10;99.90;;;;;;5044968;28;20015;-65
2022/12/08 10:42:23;;;;;;;;;;;3.20;99.90;;;;;;5029440;28;19932;-65
2022/12/08 10:45:01;;;;;;;;;;;3.30;99.90;;;;;;5029958;28;19929;-66
2022/12/08 10:47:27;;;;;;;;;;;3.30;99.90;;;;;;5045396;28;19976;-69
2022/12/08 10:50:06;;;;;;;;;;;3.30;99.90;;;;;;5029686;28;19933;-68
2022/12/08 10:52:36;;;;;;;;;;;3.30;99.90;;;;;;5062043;28;19954;-72
2022/12/08 10:55:01;;;;;;;;;;;3.30;99.90;;;;;;5012049;28;19932;-70
2022/12/08 10:57:27;;;;;;;;;;;3.30;99.90;;;;;;5044901;27;19925;-70
2022/12/08 10:59:53;;;;;;;;;;;3.20;99.90;;;;;;5044922;28;19925;-72
2022/12/08 11:02:19;;;;;;;;;;;3.30;99.90;;;;;;4995695;28;19931;-71
2022/12/08 11:04:45;;;;;;;;;;;3.30;99.90;;;;;;5029372;28;19972;-71
2022/12/08 11:07:18;;;;;;;;;;;3.30;99.90;;;;;;4995668;28;19978;-69
2022/12/08 11:09:49;;;;;;;;;;;3.30;99.90;;;;;;5028694;28;19933;-71
2022/12/08 11:12:16;;;;;;;;;;;3.30;99.90;;;;;;4976752;28;20362;-69
2022/12/08 11:14:41;;;;;;;;;;;3.40;99.90;;;;;;5021970;28;19995;-71
2022/12/08 11:17:09;;;;;;;;;;;3.40;99.90;;;;;;4990197;28;20393;-68
2022/12/08 11:19:42;;;;;;;;;;;3.40;99.90;;;;;;4989748;28;19926;-72
2022/12/08 11:22:26;;;;;;;;;;;3.50;99.90;;;;;;4989775;28;19926;-68
2022/12/08 11:25:15;;;;;;;;;;;3.50;99.90;;;;;;4988612;28;19933;-71
2022/12/08 11:27:42;;;;;;;;;;;3.60;99.90;;;;;;5021104;28;20286;-69
2022/12/08 11:30:20;;;;;;;;;;;3.60;99.90;;;;;;4989594;28;19926;-68
2022/12/08 11:32:47;;;;;;;;;;;3.60;99.90;;;;;;4990006;28;19930;-70
2022/12/08 11:35:18;;;;;;;;;;;3.60;99.90;;;;;;4989607;28;19970;-73
2022/12/08 11:37:44;;;;;;;;;;;3.60;99.90;;;;;;5004053;28;19926;-71
2022/12/08 11:40:33;;;;;;;;;;;3.70;99.90;;;;;;4989740;28;19982;-69
2022/12/08 11:43:08;;;;;;;;;;;3.60;99.90;;;;;;5018319;28;19926;-72
2022/12/08 11:45:34;;;;;;;;;;;3.80;99.90;;;;;;4988531;28;20024;-72
2022/12/08 11:48:06;;;;;;;;;;;3.80;99.90;;;;;;4989813;28;20016;-72
2022/12/08 11:50:45;;;;;;;;;;;3.80;99.90;;;;;;5021238;28;19983;-72
2022/12/08 11:53:25;;;;;;;;;;;3.80;99.90;;;;;;4988470;28;19965;-72
2022/12/08 11:56:04;;;;;;;;;;;3.80;99.90;;;;;;4988284;28;19988;-71
2022/12/08 11:58:53;;;;;;;;;;;3.70;99.90;;;;;;5021476;28;19929;-71
2022/12/08 12:01:20;;;;;;;;;;;3.60;99.90;;;;;;5014727;28;20367;-71
2022/12/08 12:03:51;;;;;;;;;;;3.60;99.90;;;;;;5021050;28;19926;-72
2022/12/08 12:06:16;;;;;;;;;;;3.50;99.90;;;;;;4989116;28;20387;-71
2022/12/08 12:08:51;;;;;;;;;;;3.50;99.90;;;;;;5005142;28;20028;-71
2022/12/08 12:12:11;;;;;;;;;;;3.50;99.90;;;;;;4988025;28;19926;-71
2022/12/08 12:14:23;;;;;;;;;;;3.50;99.90;;;;;;5020888;28;20318;-72
2022/12/08 12:17:03;;;;;;;;;;;3.60;99.90;;;;;;5020657;28;19952;-73
2022/12/08 12:19:31;;;;;;;;;;;3.60;99.90;;;;;;4987978;28;19972;-72
2022/12/08 12:21:58;;;;;;;;;;;3.50;99.90;;;;;;5004943;28;19926;-71
2022/12/08 12:24:24;;;;;;;;;;;3.60;99.90;;;;;;5020877;28;19929;-71
2022/12/08 12:27:01;;;;;;;;;;;3.50;99.90;;;;;;5020834;28;19930;-71
2022/12/08 12:29:28;;;;;;;;;;;3.50;99.90;;;;;;5004592;28;20256;-71
2022/12/08 12:31:57;;;;;;;;;;;3.60;99.90;;;;;;5021206;28;19926;-71
2022/12/08 12:34:24;;;;;;;;;;;3.60;99.90;;;;;;5004265;28;19933;-71
2022/12/08 12:36:52;;;;;;;;;;;3.70;99.90;;;;;;4989488;28;20276;-71
2022/12/08 12:39:20;;;;;;;;;;;3.80;99.90;;;;;;5020454;28;20016;-72
2022/12/08 12:41:47;;;;;;;;;;;3.80;99.90;;;;;;5004645;28;20009;-78
2022/12/08 12:44:13;;;;;;;;;;;3.90;99.90;;;;;;5020997;28;20316;-78
2022/12/08 12:46:44;;;;;;;;;;;3.90;99.90;;;;;;4988982;28;19932;-73
2022/12/08 12:49:29;;;;;;;;;;;3.90;99.90;;;;;;5023235;28;20303;-72
2022/12/08 12:51:54;;;;;;;;;;;3.90;99.90;;;;;;5024333;28;20024;-74
2022/12/08 12:54:24;;;;;;;;;;;4.00;99.90;;;;;;4992295;28;20549;-73
2022/12/08 12:56:49;;;;;;;;;;;4.00;99.90;;;;;;4975076;28;20374;-73
2022/12/08 12:59:34;;;;;;;;;;;4.00;99.90;;;;;;5024068;28;19932;-72
2022/12/08 13:02:01;;;;;;;;;;;4.00;99.90;;;;;;4992226;28;19959;-71
2022/12/08 13:04:34;;;;;;;;;;;4.00;99.90;;;;;;4991824;28;19925;-71
2022/12/08 13:07:00;;;;;;;;;;;3.90;99.90;;;;;;4992417;28;19987;-70
2022/12/08 13:09:29;;;;;;;;;;;3.90;99.90;;;;;;4974568;28;19968;-72
2022/12/08 13:11:57;;;;;;;;;;;3.80;99.90;;;;;;5017043;28;20323;-70
2022/12/08 13:14:25;;;;;;;;;;;3.70;99.90;;;;;;5031245;28;19925;-71
2022/12/08 13:16:53;;;;;;;;;;;3.60;99.90;;;;;;5031336;28;19925;-70
2022/12/08 13:19:20;;;;;;;;;;;3.50;99.90;;;;;;5031267;28;19925;-69
2022/12/08 13:21:45;;;;;;;;;;;3.50;99.90;;;;;;5046281;28;20481;-71
2022/12/08 13:24:18;;;;;;;;;;;3.40;99.90;;;;;;5031221;28;19936;-69
2022/12/08 13:27:02;;;;;;;;;;;3.30;99.90;;;;;;5046321;28;19921;-70
2022/12/08 13:29:28;;;;;;;;;;;3.20;99.90;;;;;;5030620;28;19976;-69
2022/12/08 13:31:55;;;;;;;;;;;3.10;99.90;;;;;;5013643;28;20435;-69
2022/12/08 13:34:28;;;;;;;;;;;3.00;99.90;;;;;;5046873;28;19978;-69
2022/12/08 13:37:14;;;;;;;;;;;3.00;99.90;;;;;;5046382;28;19932;-69
2022/12/08 13:39:43;;;;;;;;;;;2.90;99.90;;;;;;5060512;28;20050;-67
2022/12/08 13:42:11;;;;;;;;;;;2.90;99.90;;;;;;5046398;28;19926;-65
2022/12/08 13:44:40;;;;;;;;;;;2.80;99.90;;;;;;5013069;28;19925;-68
2022/12/08 13:47:09;;;;;;;;;;;2.80;99.90;;;;;;5063057;28;19932;-69
2022/12/08 13:49:36;;;;;;;;;;;2.80;99.90;;;;;;5030465;28;19925;-67
2022/12/08 13:52:02;;;;;;;;;;;2.80;99.90;;;;;;5029795;28;19925;-69
2022/12/08 13:54:35;;;;;;;;;;;2.80;99.90;;;;;;5030587;28;20028;-70
2022/12/08 13:57:05;;;;;;;;;;;2.80;99.90;;;;;;5030875;28;19932;-69
2022/12/08 13:59:32;;;;;;;;;;;2.80;99.90;;;;;;5044604;28;19925;-69
2022/12/08 14:02:02;;;;;;;;;;;2.90;99.90;;;;;;5046342;28;19932;-69
2022/12/08 14:04:28;;;;;;;;;;;2.90;99.90;;;;;;5046333;28;19925;-70
2022/12/08 14:07:00;;;;;;;;;;;2.90;99.90;;;;;;5029208;28;19962;-69
2022/12/08 14:09:30;;;;;;;;;;;2.90;99.90;;;;;;5030375;28;20438;-69
2022/12/08 14:12:02;;;;;;;;;;;2.90;99.90;;;;;;5029985;28;19932;-70
2022/12/08 14:14:30;;;;;;;;;;;2.80;99.90;;;;;;5045935;28;19929;-72
2022/12/08 14:17:00;;;;;;;;;;;2.80;99.90;;;;;;5045836;28;19933;-72
2022/12/08 14:19:30;;;;;;;;;;;2.80;99.90;;;;;;5045951;28;19926;-71
2022/12/08 14:22:12;;;;;;;;;;;2.80;99.90;;;;;;5028607;28;20386;-71
2022/12/08 14:24:38;;;;;;;;;;;2.80;99.90;;;;;;5030047;28;19925;-71
2022/12/08 14:27:06;;;;;;;;;;;2.80;99.90;;;;;;5045947;28;20354;-71
2022/12/08 14:29:31;;;;;;;;;;;2.80;99.90;;;;;;5012069;28;19926;-70
2022/12/08 14:31:57;;;;;;;;;;;2.80;99.90;;;;;;5029006;28;20013;-70
2022/12/08 14:34:22;;;;;;;;;;;2.80;99.90;;;;;;5029534;28;20389;-70
2022/12/08 14:36:48;;;;;;;;;;;2.70;99.90;;;;;;5062166;28;19955;-71
2022/12/08 14:39:14;;;;;;;;;;;2.70;99.90;;;;;;5030406;28;20168;-70
2022/12/08 14:41:39;;;;;;;;;;;2.90;99.90;;;;;;5030294;28;19929;-70
2022/12/08 14:44:18;;;;;;;;;;;2.70;99.90;;;;;;5045642;28;19925;-71